Time;durP1;ratioP1;P1;durP2;ratioP2;P2;SDS_P1;SDS_P2;PMS_P1;PMS_P2;Temp;Humidity;BMP_temperature;BMP_pressure;BME280_temperature;BME280_humidity;BME280_pressure;Samples;Min_cycle;Max_cycle;Signal;HPM_P1;HPM_P2
2021/07/22 00:00:18;;;;;;;12.35;8.70;;;564.10;1792.00;;;;;;5093231;28;20020;-54
2021/07/22 00:02:45;;;;;;;12.07;8.45;;;564.10;1792.00;;;;;;5093125;28;20027;-55
2021/07/22 00:05:11;;;;;;;13.00;9.05;;;564.10;1766.40;;;;;;5093136;28;20020;-55
2021/07/22 00:07:37;;;;;;;13.77;9.00;;;564.10;1766.40;;;;;;5093062;28;20032;-55
2021/07/22 00:10:03;;;;;;;13.02;8.65;;;564.10;1766.40;;;;;;5093061;28;20024;-55
2021/07/22 00:12:29;;;;;;;13.95;9.15;;;564.00;1792.00;;;;;;5093263;28;20024;-55
2021/07/22 00:14:55;;;;;;;12.65;9.57;;;564.00;1792.00;;;;;;5092987;28;20501;-55
2021/07/22 00:17:21;;;;;;;9.88;8.88;;;563.90;1792.00;;;;;;5095020;28;20028;-55
2021/07/22 00:19:47;;;;;;;11.25;9.52;;;563.80;1792.00;;;;;;5096997;28;20032;-55
2021/07/22 00:22:13;;;;;;;15.40;9.52;;;563.70;1792.00;;;;;;5096765;28;20027;-56
2021/07/22 00:24:39;;;;;;;12.98;10.48;;;563.70;1792.00;;;;;;5096456;28;20476;-55
2021/07/22 00:27:05;;;;;;;15.95;11.07;;;563.70;1792.00;;;;;;5096608;28;20025;-55
2021/07/22 00:29:34;;;;;;;18.27;11.82;;;563.70;1792.00;;;;;;5096825;28;20020;-55
2021/07/22 00:32:00;;;;;;;20.70;12.93;;;563.80;1766.40;;;;;;5096500;28;20564;-55
2021/07/22 00:34:26;;;;;;;23.58;13.35;;;563.80;1766.40;;;;;;5096399;28;20123;-55
2021/07/22 00:36:51;;;;;;;22.50;14.13;;;563.80;1766.40;;;;;;5096407;28;20024;-55
2021/07/22 00:39:18;;;;;;;21.35;14.10;;;563.90;1766.40;;;;;;5096360;28;20047;-55
2021/07/22 00:41:44;;;;;;;26.40;15.52;;;563.90;1766.40;;;;;;5096372;28;20019;-55
2021/07/22 00:44:10;;;;;;;23.45;15.75;;;563.90;1766.40;;;;;;5094991;28;20503;-55
2021/07/22 00:46:36;;;;;;;29.10;14.50;;;563.90;1766.40;;;;;;5096215;28;20028;-55
2021/07/22 00:49:02;;;;;;;24.67;15.52;;;563.90;1766.40;;;;;;5096173;28;20043;-55
2021/07/22 00:51:27;;;;;;;24.33;14.23;;;563.90;1766.40;;;;;;5096133;28;20016;-55
2021/07/22 00:53:53;;;;;;;21.40;13.38;;;563.90;1766.40;;;;;;5096556;28;20431;-55
2021/07/22 00:56:19;;;;;;;21.70;13.45;;;563.90;1766.40;;;;;;5096089;28;20484;-55
2021/07/22 00:58:45;;;;;;;18.55;12.57;;;563.90;1766.40;;;;;;5096238;28;20024;-55
2021/07/22 01:01:12;;;;;;;25.63;13.63;;;563.90;1766.40;;;;;;5096101;28;20056;-55
2021/07/22 01:03:39;;;;;;;19.08;13.07;;;563.90;1766.40;;;;;;5096158;28;20107;-55
2021/07/22 01:06:05;;;;;;;23.27;13.07;;;563.80;1766.40;;;;;;5095892;28;20066;-55
2021/07/22 01:08:31;;;;;;;18.10;12.93;;;563.80;1766.40;;;;;;5095768;28;20499;-55
2021/07/22 01:10:56;;;;;;;20.15;13.35;;;563.70;1766.40;;;;;;5095812;28;20012;-55
2021/07/22 01:13:22;;;;;;;21.92;13.98;;;563.70;1766.40;;;;;;5095666;28;20043;-55
2021/07/22 01:15:48;;;;;;;21.50;12.43;;;563.70;1766.40;;;;;;5095644;28;20374;-55
2021/07/22 01:18:14;;;;;;;22.88;13.02;;;563.70;1792.00;;;;;;5096206;28;20027;-56
2021/07/22 01:20:40;;;;;;;23.48;14.20;;;563.60;1792.00;;;;;;5094289;28;20403;-55
2021/07/22 01:23:06;;;;;;;21.05;14.25;;;563.50;1817.60;;;;;;5095543;28;20027;-55
2021/07/22 01:25:32;;;;;;;21.88;13.77;;;563.50;1817.60;;;;;;5095493;28;20028;-55
2021/07/22 01:27:58;;;;;;;19.08;13.38;;;563.60;1792.00;;;;;;5094332;28;20561;-55
2021/07/22 01:30:24;;;;;;;19.10;12.93;;;563.60;1792.00;;;;;;5095200;28;20473;-55
2021/07/22 01:32:52;;;;;;;19.23;13.07;;;563.60;1792.00;;;;;;5095260;28;20035;-55
2021/07/22 01:35:18;;;;;;;19.45;13.65;;;563.60;1792.00;;;;;;5095270;28;20161;-55
2021/07/22 01:37:45;;;;;;;20.48;12.93;;;563.60;1792.00;;;;;;5095339;28;20031;-55
2021/07/22 01:40:14;;;;;;;19.98;12.77;;;563.60;1792.00;;;;;;5095145;28;20027;-55
2021/07/22 01:42:40;;;;;;;19.33;12.70;;;563.50;1817.60;;;;;;5095144;28;20469;-56
2021/07/22 01:45:07;;;;;;;22.58;13.30;;;563.40;1817.60;;;;;;5095134;28;20024;-56
2021/07/22 01:47:34;;;;;;;20.70;12.50;;;563.20;1843.20;;;;;;5095049;28;20473;-55
2021/07/22 01:50:00;;;;;;;20.42;13.75;;;563.30;1817.60;;;;;;5095046;28;20468;-55
2021/07/22 01:52:26;;;;;;;18.50;12.43;;;563.30;1817.60;;;;;;5094738;28;20028;-55
2021/07/22 01:54:52;;;;;;;17.63;11.65;;;563.20;1817.60;;;;;;5094711;28;20032;-55
2021/07/22 01:57:18;;;;;;;13.82;9.98;;;563.30;1817.60;;;;;;5094728;28;20148;-55
2021/07/22 01:59:44;;;;;;;14.45;10.57;;;563.30;1792.00;;;;;;5094686;28;20082;-55
2021/07/22 02:02:11;;;;;;;15.27;11.10;;;563.30;1792.00;;;;;;5094660;28;20020;-55
2021/07/22 02:04:39;;;;;;;13.75;10.15;;;538.50;1792.00;;;;;;5094797;28;20070;-55
2021/07/22 02:07:05;;;;;;;12.52;10.25;;;563.20;1817.60;;;;;;5095140;28;20031;-55
2021/07/22 02:09:32;;;;;;;15.40;9.68;;;563.20;1792.00;;;;;;5095035;28;20062;-55
2021/07/22 02:11:59;;;;;;;24.10;11.50;;;563.30;1792.00;;;;;;5094611;28;20024;-55
2021/07/22 02:14:26;;;;;;;15.85;10.40;;;563.30;1792.00;;;;;;5094492;28;20574;-55
2021/07/22 02:16:52;;;;;;;16.75;9.38;;;563.30;1792.00;;;;;;5094509;28;20152;-55
2021/07/22 02:19:18;;;;;;;14.68;9.05;;;563.30;1792.00;;;;;;5095075;28;20055;-55
2021/07/22 02:21:44;;;;;;;13.88;9.95;;;563.30;1792.00;;;;;;5094867;28;20474;-56
2021/07/22 02:24:13;;;;;;;12.30;9.25;;;563.30;1792.00;;;;;;5095634;28;20043;-55
2021/07/22 02:26:39;;;;;;;13.70;10.02;;;563.20;1792.00;;;;;;5095322;28;20489;-55
2021/07/22 02:29:06;;;;;;;15.35;9.50;;;563.20;1792.00;;;;;;5094377;28;20400;-55
2021/07/22 02:31:35;;;;;;;16.58;9.77;;;563.20;1792.00;;;;;;5094255;28;20020;-55
2021/07/22 02:34:01;;;;;;;17.67;10.43;;;563.20;1792.00;;;;;;5094634;28;20034;-55
2021/07/22 02:36:27;;;;;;;12.48;9.23;;;563.20;1792.00;;;;;;5094109;28;20102;-55
2021/07/22 02:38:53;;;;;;;13.30;10.00;;;563.20;1792.00;;;;;;5094234;28;20028;-55
2021/07/22 02:41:20;;;;;;;11.25;9.73;;;563.20;1817.60;;;;;;5093853;28;20027;-55
2021/07/22 02:43:45;;;;;;;18.75;10.20;;;563.20;1817.60;;;;;;5094311;28;20077;-55
2021/07/22 02:46:12;;;;;;;14.43;9.93;;;538.50;1792.00;;;;;;5093959;28;20024;-55
2021/07/22 02:48:38;;;;;;;18.58;9.50;;;538.40;1792.00;;;;;;5094269;28;20541;-55
2021/07/22 02:51:06;;;;;;;14.95;10.23;;;538.40;1792.00;;;;;;5093890;28;20020;-55
2021/07/22 02:53:34;;;;;;;13.52;10.07;;;538.40;1792.00;;;;;;5093834;28;20020;-55
2021/07/22 02:56:01;;;;;;;14.13;9.98;;;538.40;1792.00;;;;;;5093862;28;20032;-55
2021/07/22 02:58:27;;;;;;;14.05;10.25;;;538.40;1792.00;;;;;;5093798;28;20020;-55
2021/07/22 03:00:54;;;;;;;15.05;9.57;;;538.40;1792.00;;;;;;5093878;28;20099;-55
2021/07/22 03:03:20;;;;;;;15.63;10.20;;;538.30;1817.60;;;;;;5093762;28;20433;-55
2021/07/22 03:05:46;;;;;;;11.48;9.63;;;538.30;1817.60;;;;;;5094020;28;20107;-55
2021/07/22 03:08:11;;;;;;;16.38;10.15;;;538.20;1817.60;;;;;;5093693;28;20031;-56
2021/07/22 03:10:38;;;;;;;14.45;10.10;;;538.20;1817.60;;;;;;5093673;28;20107;-55
2021/07/22 03:13:04;;;;;;;14.77;10.50;;;538.30;1817.60;;;;;;5093585;28;20028;-55
2021/07/22 03:15:30;;;;;;;18.33;10.60;;;538.30;1817.60;;;;;;5093950;28;20020;-56
2021/07/22 03:17:57;;;;;;;13.20;9.88;;;538.20;1817.60;;;;;;5093801;28;20426;-55
2021/07/22 03:20:23;;;;;;;13.90;9.95;;;538.20;1817.60;;;;;;5093612;28;20020;-55
2021/07/22 03:22:49;;;;;;;18.33;10.00;;;538.20;1817.60;;;;;;5093572;28;20024;-55
2021/07/22 03:25:15;;;;;;;14.40;10.10;;;538.20;1817.60;;;;;;5093538;28;20024;-55
2021/07/22 03:27:41;;;;;;;16.10;10.52;;;538.20;1792.00;;;;;;5093251;28;20044;-55
2021/07/22 03:30:08;;;;;;;14.50;10.57;;;538.20;1792.00;;;;;;5093517;28;20036;-55
2021/07/22 03:32:36;;;;;;;13.25;9.73;;;538.20;1792.00;;;;;;5093363;28;20016;-55
2021/07/22 03:35:02;;;;;;;19.50;10.40;;;538.20;1792.00;;;;;;5093477;28;20064;-55
2021/07/22 03:37:30;;;;;;;13.88;10.13;;;538.20;1817.60;;;;;;5093418;28;20012;-55
2021/07/22 03:39:55;;;;;;;14.82;11.10;;;538.20;1817.60;;;;;;5093492;28;20032;-55
2021/07/22 03:42:21;;;;;;;19.20;10.98;;;538.20;1817.60;;;;;;5093626;28;20028;-55
2021/07/22 03:44:47;;;;;;;18.55;10.45;;;538.20;1817.60;;;;;;5093333;28;20095;-55
2021/07/22 03:47:13;;;;;;;18.70;10.23;;;538.20;1817.60;;;;;;5093322;28;20030;-55
2021/07/22 03:49:39;;;;;;;20.17;10.30;;;538.20;1817.60;;;;;;5093515;28;20115;-55
2021/07/22 03:52:05;;;;;;;18.17;9.55;;;538.20;1817.60;;;;;;5094882;28;20024;-55
2021/07/22 03:54:31;;;;;;;14.32;10.13;;;538.20;1817.60;;;;;;5097427;28;20032;-55
2021/07/22 03:56:57;;;;;;;13.18;9.98;;;538.20;1817.60;;;;;;5097234;28;20039;-55
2021/07/22 03:59:23;;;;;;;17.50;9.50;;;538.20;1792.00;;;;;;5097085;28;20111;-55
2021/07/22 04:01:49;;;;;;;18.63;9.57;;;538.30;1792.00;;;;;;5097080;28;20024;-55
2021/07/22 04:04:14;;;;;;;16.67;9.88;;;538.30;1792.00;;;;;;5097035;28;20024;-54
2021/07/22 04:06:40;;;;;;;22.08;10.55;;;538.30;1792.00;;;;;;5096988;28;20392;-54
2021/07/22 04:09:06;;;;;;;17.63;10.13;;;538.30;1792.00;;;;;;5096987;28;20377;-55
2021/07/22 04:11:35;;;;;;;19.77;10.50;;;538.30;1792.00;;;;;;5097133;28;20024;-55
2021/07/22 04:14:01;;;;;;;16.50;8.93;;;538.30;1792.00;;;;;;5096864;28;20388;-55
2021/07/22 04:16:27;;;;;;;14.85;9.65;;;538.30;1792.00;;;;;;5096818;28;20106;-55
2021/07/22 04:18:53;;;;;;;20.58;10.15;;;538.40;1792.00;;;;;;5096682;28;20063;-55
2021/07/22 04:21:19;;;;;;;14.05;8.98;;;538.40;1792.00;;;;;;5096999;28;20024;-55
2021/07/22 04:23:45;;;;;;;14.90;9.38;;;538.40;1792.00;;;;;;5096701;28;20465;-55
2021/07/22 04:26:19;;;;;;;11.35;9.70;;;538.40;1766.40;;;;;;5096876;28;20020;-55
2021/07/22 04:28:45;;;;;;;12.30;9.23;;;538.40;1766.40;;;;;;5096408;28;20043;-54
2021/07/22 04:31:15;;;;;;;16.85;9.45;;;538.50;1766.40;;;;;;5096564;28;20545;-55
2021/07/22 04:33:42;;;;;;;17.75;9.63;;;538.50;1792.00;;;;;;5096362;28;20553;-55
2021/07/22 04:36:08;;;;;;;14.40;9.60;;;538.50;1792.00;;;;;;5096456;28;20021;-55
2021/07/22 04:38:39;;;;;;;19.33;10.13;;;563.20;1817.60;;;;;;5096395;28;20077;-54
2021/07/22 04:41:09;;;;;;;13.07;8.70;;;538.50;1792.00;;;;;;5096344;28;20465;-55
2021/07/22 04:43:35;;;;;;;11.27;9.48;;;538.50;1792.00;;;;;;5096372;28;20050;-54
2021/07/22 04:46:05;;;;;;;19.85;9.93;;;563.20;1817.60;;;;;;5094975;28;20074;-55
2021/07/22 04:48:32;;;;;;;14.18;9.23;;;563.20;1817.60;;;;;;5096153;28;20507;-55
2021/07/22 04:51:07;;;;;;;16.80;9.90;;;563.20;1817.60;;;;;;5094943;28;20116;-55
2021/07/22 04:53:34;;;;;;;12.85;9.88;;;563.20;1817.60;;;;;;5096395;28;20024;-55
2021/07/22 04:56:00;;;;;;;17.45;9.60;;;563.20;1817.60;;;;;;5096559;28;20031;-55
2021/07/22 04:58:26;;;;;;;14.38;9.75;;;563.20;1817.60;;;;;;5096129;28;20020;-55
2021/07/22 05:00:53;;;;;;;14.68;8.98;;;563.20;1817.60;;;;;;5096484;28;20085;-55
2021/07/22 05:03:19;;;;;;;14.82;10.23;;;563.20;1817.60;;;;;;5095714;28;20503;-55
2021/07/22 05:05:45;;;;;;;15.23;9.77;;;563.30;1817.60;;;;;;5096229;28;20028;-55
2021/07/22 05:08:11;;;;;;;16.88;9.85;;;563.20;1843.20;;;;;;5096050;28;20026;-55
2021/07/22 05:10:37;;;;;;;15.40;9.82;;;563.30;1843.20;;;;;;5095790;28;20021;-55
2021/07/22 05:13:04;;;;;;;13.27;9.23;;;563.40;1843.20;;;;;;5095674;28;20396;-55
2021/07/22 05:15:30;;;;;;;15.38;10.05;;;563.40;1817.60;;;;;;5095741;28;20024;-55
2021/07/22 05:17:56;;;;;;;16.70;9.50;;;563.50;1817.60;;;;;;5095682;28;20027;-55
2021/07/22 05:20:22;;;;;;;14.63;8.93;;;563.50;1843.20;;;;;;5095649;28;20027;-55
2021/07/22 05:22:48;;;;;;;13.95;8.88;;;563.50;1843.20;;;;;;5095652;28;20032;-55
2021/07/22 05:25:14;;;;;;;14.05;8.95;;;563.60;1843.20;;;;;;5095633;28;20025;-55
2021/07/22 05:27:40;;;;;;;14.02;8.73;;;563.60;1843.20;;;;;;5095246;28;20062;-55
2021/07/22 05:30:07;;;;;;;14.23;8.52;;;563.60;1843.20;;;;;;5095369;28;20120;-55
2021/07/22 05:32:33;;;;;;;10.65;7.97;;;563.70;1817.60;;;;;;5095644;28;20388;-55
2021/07/22 05:34:59;;;;;;;13.85;8.32;;;563.70;1817.60;;;;;;5095321;28;20039;-55
2021/07/22 05:37:26;;;;;;;11.45;8.40;;;563.70;1817.60;;;;;;5095558;28;20441;-55
2021/07/22 05:39:51;;;;;;;14.95;8.95;;;563.80;1817.60;;;;;;5095297;28;20136;-55
2021/07/22 05:42:17;;;;;;;15.20;9.13;;;563.80;1817.60;;;;;;5095151;28;20095;-55
2021/07/22 05:44:43;;;;;;;16.85;8.20;;;563.90;1843.20;;;;;;5093919;28;20032;-55
2021/07/22 05:47:09;;;;;;;11.60;7.28;;;563.90;1817.60;;;;;;5095133;28;20464;-55
2021/07/22 05:49:35;;;;;;;10.35;6.55;;;563.90;1817.60;;;;;;5095031;28;20020;-55
2021/07/22 05:52:01;;;;;;;11.40;6.45;;;564.00;1817.60;;;;;;5095267;28;20465;-55
2021/07/22 05:54:27;;;;;;;12.90;6.93;;;564.00;1792.00;;;;;;5094899;28;20035;-55
2021/07/22 05:56:53;;;;;;;7.03;5.35;;;564.00;1792.00;;;;;;5093671;28;20023;-55
2021/07/22 05:59:19;;;;;;;10.52;6.15;;;564.10;1792.00;;;;;;5095125;28;20468;-55
2021/07/22 06:01:45;;;;;;;7.50;6.47;;;564.10;1792.00;;;;;;5093315;28;20020;-55
2021/07/22 06:04:10;;;;;;;10.35;5.68;;;564.10;1792.00;;;;;;5094636;28;20024;-55
2021/07/22 06:06:36;;;;;;;9.77;5.78;;;588.80;1766.40;;;;;;5094288;28;20033;-55
2021/07/22 06:09:04;;;;;;;6.55;5.07;;;588.80;1766.40;;;;;;5094674;28;20024;-55
2021/07/22 06:11:30;;;;;;;10.68;5.97;;;588.90;1766.40;;;;;;5094601;28;20411;-55
2021/07/22 06:13:56;;;;;;;12.35;5.05;;;589.00;1766.40;;;;;;5093611;28;20047;-55
2021/07/22 06:16:22;;;;;;;9.48;4.97;;;589.00;1766.40;;;;;;5094384;28;20016;-55
2021/07/22 06:18:47;;;;;;;9.43;3.97;;;589.00;1740.80;;;;;;5094481;28;20020;-55
2021/07/22 06:21:15;;;;;;;8.18;4.72;;;589.10;1740.80;;;;;;5094407;28;20020;-55
2021/07/22 06:23:42;;;;;;;10.02;5.13;;;589.20;1740.80;;;;;;5094281;28;20028;-55
2021/07/22 06:26:07;;;;;;;9.02;4.50;;;589.30;1740.80;;;;;;5094046;28;20024;-55
2021/07/22 06:28:33;;;;;;;7.00;4.82;;;589.40;1715.20;;;;;;5094262;28;20050;-55
2021/07/22 06:30:59;;;;;;;7.88;5.32;;;589.40;1715.20;;;;;;5094240;28;20078;-55
2021/07/22 06:33:25;;;;;;;8.95;5.25;;;589.50;1740.80;;;;;;5093885;28;20500;-55
2021/07/22 06:35:52;;;;;;;9.38;5.38;;;589.60;1740.80;;;;;;5094042;28;20476;-55
2021/07/22 06:38:17;;;;;;;9.88;4.50;;;589.70;1740.80;;;;;;5093297;28;20465;-55
2021/07/22 06:40:43;;;;;;;7.45;4.55;;;614.40;1715.20;;;;;;5093283;28;20078;-55
2021/07/22 06:43:10;;;;;;;10.00;4.43;;;614.50;1715.20;;;;;;5093447;28;20073;-55
2021/07/22 06:45:38;;;;;;;12.18;5.15;;;614.60;1664.00;;;;;;5093426;28;20024;-55
2021/07/22 06:48:04;;;;;;;12.10;5.40;;;614.70;1715.20;;;;;;5090573;28;20020;-55
2021/07/22 06:50:31;;;;;;;8.93;5.57;;;614.80;1689.60;;;;;;5093316;28;20093;-55
2021/07/22 06:52:57;;;;;;;9.18;5.30;;;614.90;1689.60;;;;;;5093645;28;20468;-55
2021/07/22 06:55:22;;;;;;;11.00;5.32;;;615.00;1689.60;;;;;;5093245;28;20085;-55
2021/07/22 06:57:48;;;;;;;12.45;6.13;;;615.00;1689.60;;;;;;5094186;28;20028;-55
2021/07/22 07:00:15;;;;;;;16.55;6.30;;;615.10;1664.00;;;;;;5093515;28;20028;-55
2021/07/22 07:02:41;;;;;;;10.38;5.57;;;615.20;1664.00;;;;;;5093524;28;20027;-55
2021/07/22 07:05:08;;;;;;;12.40;4.97;;;615.30;1638.40;;;;;;5093486;28;20035;-55
2021/07/22 07:07:34;;;;;;;13.02;6.40;;;640.00;1638.40;;;;;;5093473;28;20050;-55
2021/07/22 07:10:00;;;;;;;11.30;5.45;;;640.10;1664.00;;;;;;5092200;28;20035;-55
2021/07/22 07:12:26;;;;;;;10.18;5.90;;;640.10;1638.40;;;;;;5093560;28;20027;-55
2021/07/22 07:14:51;;;;;;;12.80;5.63;;;640.20;1638.40;;;;;;5093715;28;20141;-55
2021/07/22 07:17:17;;;;;;;20.83;6.00;;;640.30;1638.40;;;;;;5093681;28;20050;-55
2021/07/22 07:19:44;;;;;;;27.98;6.50;;;640.30;1612.80;;;;;;5071511;28;20107;-55
2021/07/22 07:22:10;;;;;;;7.07;4.55;;;640.50;1612.80;;;;;;5072058;28;20021;-55
2021/07/22 07:24:35;;;;;;;13.75;5.57;;;640.50;1561.60;;;;;;5072931;28;20103;-55
2021/07/22 07:27:04;;;;;;;10.38;5.40;;;640.60;1587.20;;;;;;5076265;28;20025;-55
2021/07/22 07:29:29;;;;;;;19.42;5.50;;;640.70;1587.20;;;;;;5077221;28;20032;-55
2021/07/22 07:31:59;;;;;;;7.15;4.70;;;640.70;1587.20;;;;;;5076763;28;20473;-55
2021/07/22 07:34:26;;;;;;;12.88;5.65;;;640.80;1561.60;;;;;;5077279;28;20111;-55
2021/07/22 07:36:52;;;;;;;11.82;4.95;;;640.80;1561.60;;;;;;5077410;28;20021;-56
2021/07/22 07:39:18;;;;;;;7.80;4.93;;;640.90;1561.60;;;;;;5083831;28;20016;-56
2021/07/22 07:41:44;;;;;;;8.65;5.30;;;665.60;1561.60;;;;;;5097359;28;20032;-55
2021/07/22 07:44:10;;;;;;;10.38;4.72;;;665.60;1587.20;;;;;;5097495;28;20036;-55
2021/07/22 07:46:36;;;;;;;8.68;6.35;;;665.70;1587.20;;;;;;5097392;28;20073;-55
2021/07/22 07:49:03;;;;;;;7.25;4.28;;;665.70;1587.20;;;;;;5097409;28;20389;-55
2021/07/22 07:51:29;;;;;;;9.35;4.80;;;665.70;1587.20;;;;;;5096854;28;20024;-56
2021/07/22 07:53:55;;;;;;;8.52;4.55;;;665.70;1587.20;;;;;;5096959;28;20048;-55
2021/07/22 07:56:21;;;;;;;10.45;4.93;;;665.70;1587.20;;;;;;5096993;28;20051;-55
2021/07/22 07:58:48;;;;;;;6.32;4.88;;;665.70;1587.20;;;;;;5097298;28;20055;-55
2021/07/22 08:01:15;;;;;;;12.43;5.03;;;665.70;1536.00;;;;;;5097164;28;20020;-55
2021/07/22 08:03:41;;;;;;;20.08;5.25;;;665.80;1587.20;;;;;;5097159;28;20016;-56
2021/07/22 08:06:07;;;;;;;15.00;4.97;;;665.80;1587.20;;;;;;5097079;28;20411;-55
2021/07/22 08:08:33;;;;;;;7.93;4.07;;;665.80;1587.20;;;;;;5096908;28;20032;-55
2021/07/22 08:10:59;;;;;;;14.43;5.03;;;665.80;1587.20;;;;;;5095840;28;20231;-55
2021/07/22 08:13:25;;;;;;;15.52;5.15;;;665.90;1587.20;;;;;;5095357;28;20499;-54
2021/07/22 08:15:51;;;;;;;7.75;4.80;;;665.90;1587.20;;;;;;5095436;28;20028;-52
2021/07/22 08:18:17;;;;;;;14.05;5.50;;;666.00;1561.60;;;;;;5095476;28;20024;-55
2021/07/22 08:20:43;;;;;;;15.63;4.95;;;666.00;1587.20;;;;;;5095205;28;20514;-55
2021/07/22 08:23:10;;;;;;;7.53;4.97;;;666.00;1587.20;;;;;;5095309;28;20107;-55
2021/07/22 08:25:38;;;;;;;51.97;7.57;;;666.00;1561.60;;;;;;5095251;28;20552;-55
2021/07/22 08:28:05;;;;;;;10.55;4.90;;;666.10;1587.20;;;;;;5094948;28;20119;-55
2021/07/22 08:30:32;;;;;;;11.48;4.18;;;666.10;1561.60;;;;;;5092700;28;20024;-54
2021/07/22 08:32:58;;;;;;;23.88;5.20;;;666.10;1510.40;;;;;;5094466;28;20030;-55
2021/07/22 08:35:24;;;;;;;15.73;5.28;;;666.10;1536.00;;;;;;5094544;28;20510;-55
2021/07/22 08:37:50;;;;;;;24.02;5.07;;;666.10;1561.60;;;;;;5093910;28;20070;-55
2021/07/22 08:40:16;;;;;;;22.73;5.70;;;666.10;1561.60;;;;;;5094797;28;20387;-55
2021/07/22 08:42:45;;;;;;;29.25;6.63;;;666.10;1561.60;;;;;;5094996;28;20043;-55
2021/07/22 08:45:12;;;;;;;6.03;4.00;;;666.10;1561.60;;;;;;5091778;28;20028;-55
2021/07/22 08:47:40;;;;;;;20.13;5.78;;;666.10;1561.60;;;;;;5094850;28;20016;-53
2021/07/22 08:50:07;;;;;;;18.45;4.60;;;666.10;1561.60;;;;;;5094842;28;20055;-54
2021/07/22 08:52:33;;;;;;;7.80;4.68;;;666.10;1536.00;;;;;;5091896;28;20469;-54
2021/07/22 08:54:59;;;;;;;9.23;4.05;;;666.20;1536.00;;;;;;5095232;28;20101;-54
2021/07/22 08:57:32;;;;;;;8.27;4.13;;;666.10;1484.80;;;;;;5095630;28;20403;-54
2021/07/22 08:59:59;;;;;;;40.65;5.97;;;666.00;1484.80;;;;;;5093746;28;20020;-54
2021/07/22 09:02:29;;;;;;;29.50;6.30;;;665.90;1561.60;;;;;;5093061;28;20472;-54
2021/07/22 09:04:59;;;;;;;5.63;3.75;;;666.00;1536.00;;;;;;5096389;28;20012;-54
2021/07/22 09:07:26;;;;;;;12.77;3.92;;;666.00;1484.80;;;;;;5095891;28;20114;-54
2021/07/22 09:10:04;;;;;;;84.15;8.70;;;666.10;1484.80;;;;;;5095862;28;20103;-54
2021/07/22 09:12:36;;;;;;;141.65;12.77;;;666.10;1484.80;;;;;;5095791;28;20035;-54
2021/07/22 09:15:04;;;;;;;88.38;10.35;;;666.10;1510.40;;;;;;5094285;28;20089;-54
2021/07/22 09:17:30;;;;;;;68.85;9.57;;;666.20;1536.00;;;;;;5095775;28;20028;-54
2021/07/22 09:19:55;;;;;;;55.00;7.53;;;666.20;1536.00;;;;;;5095674;28;20495;-55
2021/07/22 09:22:40;;;;;;;5.95;3.55;;;666.30;1536.00;;;;;;5095648;28;20381;-54
2021/07/22 09:25:07;;;;;;;64.78;7.57;;;666.30;1484.80;;;;;;5095818;28;20020;-54
2021/07/22 09:27:44;;;;;;;46.00;6.65;;;666.30;1510.40;;;;;;5095288;28;20507;-54
2021/07/22 09:30:16;;;;;;;36.40;6.03;;;666.30;1484.80;;;;;;5094302;28;20436;-53
2021/07/22 09:32:49;;;;;;;32.80;4.30;;;666.30;1510.40;;;;;;5095765;28;20474;-54
2021/07/22 09:35:17;;;;;;;14.52;5.00;;;666.30;1459.20;;;;;;5095922;28;20036;-55
2021/07/22 09:37:48;;;;;;;9.35;3.60;;;666.20;1484.80;;;;;;5095365;28;20016;-55
2021/07/22 09:40:31;;;;;;;34.70;4.88;;;666.20;1433.60;;;;;;5095311;28;20490;-55
2021/07/22 09:42:57;;;;;;;28.00;5.78;;;666.30;1484.80;;;;;;5095877;28;20358;-55
2021/07/22 09:45:26;;;;;;;41.45;4.75;;;666.30;1484.80;;;;;;5095416;28;20024;-55
2021/07/22 09:47:56;;;;;;;36.17;6.05;;;666.30;1484.80;;;;;;5095060;28;20423;-55
2021/07/22 09:50:24;;;;;;;31.60;5.88;;;666.30;1459.20;;;;;;5094350;28;20020;-55
2021/07/22 09:53:08;;;;;;;13.93;4.72;;;666.20;1484.80;;;;;;5094980;28;20103;-55
2021/07/22 09:55:35;;;;;;;41.40;6.05;;;666.10;1459.20;;;;;;5094965;28;20024;-55
2021/07/22 10:01:23;;;;;;;6.78;3.42;;;666.10;1459.20;;;;;;5095118;28;20031;-55
2021/07/22 10:03:50;;;;;;;9.38;4.53;;;666.10;1408.00;;;;;;5094815;28;20393;-55
2021/07/22 10:06:19;;;;;;;28.85;5.97;;;666.10;1459.20;;;;;;5094842;28;20028;-55
2021/07/22 10:08:46;;;;;;;17.08;4.85;;;666.10;1510.40;;;;;;5093487;28;20016;-54
2021/07/22 10:11:12;;;;;;;29.33;5.85;;;666.20;1484.80;;;;;;5094699;28;20476;-55
2021/07/22 10:13:43;;;;;;;37.20;5.78;;;666.30;1484.80;;;;;;5094570;28;20055;-55
2021/07/22 10:16:22;;;;;;;13.95;4.72;;;666.30;1484.80;;;;;;5094693;28;20495;-55
2021/07/22 10:18:52;;;;;;;36.75;7.40;;;666.30;1459.20;;;;;;5095185;28;20027;-55
2021/07/22 10:21:19;;;;;;;12.93;4.40;;;666.40;1484.80;;;;;;5094506;28;20115;-54
2021/07/22 10:23:47;;;;;;;29.27;8.00;;;666.40;1433.60;;;;;;5094464;28;20028;-55
2021/07/22 10:26:14;;;;;;;34.22;9.07;;;691.20;1484.80;;;;;;5094654;28;20387;-55
2021/07/22 10:28:41;;;;;;;43.47;11.07;;;666.40;1459.20;;;;;;5094161;28;20043;-54
2021/07/22 10:31:07;;;;;;;51.03;10.13;;;666.40;1459.20;;;;;;5095407;28;20024;-54
2021/07/22 10:33:36;;;;;;;65.13;14.25;;;666.40;1459.20;;;;;;5095937;28;20036;-54
2021/07/22 10:36:03;;;;;;;14.50;4.47;;;666.30;1459.20;;;;;;5096712;28;20007;-54
2021/07/22 10:38:42;;;;;;;31.45;8.88;;;666.40;1433.60;;;;;;5093815;28;20115;-56
2021/07/22 10:41:08;;;;;;;50.20;11.05;;;666.40;1408.00;;;;;;5093710;28;20415;-57
2021/07/22 10:43:43;;;;;;;52.03;10.18;;;666.40;1459.20;;;;;;5093894;28;20066;-56
2021/07/22 10:46:17;;;;;;;5.68;4.47;;;666.40;1459.20;;;;;;5093897;28;20024;-58
2021/07/22 10:48:44;;;;;;;20.63;5.45;;;666.40;1382.40;;;;;;5089949;28;20992;-58
2021/07/22 10:51:14;;;;;;;43.08;10.88;;;666.40;1382.40;;;;;;5089980;28;20020;-58
2021/07/22 10:53:48;;;;;;;9.30;5.30;;;691.20;1433.60;;;;;;5097071;28;20055;-58
2021/07/22 10:56:39;;;;;;;29.50;7.55;;;691.20;1356.80;;;;;;5411567;22;20056;-77
2021/07/22 10:59:05;;;;;;;28.58;9.15;;;691.20;1382.40;;;;;;5071191;28;20047;-78
2021/07/22 11:01:43;;;;;;;27.00;7.95;;;691.20;1433.60;;;;;;5038476;28;20070;-78
2021/07/22 11:04:10;;;;;;;12.00;5.35;;;691.30;1433.60;;;;;;5073333;28;20065;-77
2021/07/22 11:06:57;;;;;;;26.63;7.57;;;691.20;1433.60;;;;;;5073347;28;20432;-78
2021/07/22 11:09:45;;;;;;;13.07;5.20;;;691.20;1459.20;;;;;;5073343;28;20025;-74
2021/07/22 11:12:44;;;;;;;19.98;6.53;;;691.20;1433.60;;;;;;5073064;28;20103;-73
2021/07/22 11:15:36;;;;;;;22.05;7.50;;;691.20;1408.00;;;;;;5072842;28;20036;-73
2021/07/22 11:18:42;;;;;;;22.85;7.45;;;666.40;1459.20;;;;;;5072445;28;20025;-73
2021/07/22 11:21:33;;;;;;;7.93;5.50;;;666.40;1459.20;;;;;;5073121;28;20021;-74
2021/07/22 11:24:02;;;;;;;18.17;7.50;;;666.40;1408.00;;;;;;5058766;28;20024;-72
2021/07/22 11:26:30;;;;;;;19.33;7.22;;;666.40;1459.20;;;;;;5054890;28;20107;-70
2021/07/22 11:28:58;;;;;;;27.33;6.50;;;666.40;1484.80;;;;;;5072923;28;20487;-72
2021/07/22 11:31:24;;;;;;;14.13;6.18;;;666.30;1484.80;;;;;;5073089;28;20115;-75
2021/07/22 11:33:51;;;;;;;14.38;6.72;;;666.30;1484.80;;;;;;5054999;28;20068;-72
2021/07/22 11:36:22;;;;;;;10.50;5.60;;;666.30;1459.20;;;;;;5072918;28;20025;-80
2021/07/22 11:38:53;;;;;;;15.27;6.05;;;666.30;1484.80;;;;;;5055006;28;20024;-73
2021/07/22 11:41:21;;;;;;;13.55;5.88;;;666.30;1484.80;;;;;;5073116;28;20020;-73
2021/07/22 11:44:00;;;;;;;10.07;6.05;;;666.30;1484.80;;;;;;5072755;28;20472;-76
2021/07/22 11:46:45;;;;;;;8.90;6.22;;;666.30;1484.80;;;;;;5072150;28;20029;-77
2021/07/22 11:49:16;;;;;;;10.85;5.15;;;666.30;1484.80;;;;;;5072392;28;20457;-73
2021/07/22 11:51:46;;;;;;;10.25;5.70;;;666.20;1484.80;;;;;;5067717;28;20105;-75
2021/07/22 11:54:14;;;;;;;18.25;5.28;;;666.30;1484.80;;;;;;5072796;28;20094;-75
2021/07/22 11:56:42;;;;;;;11.30;5.15;;;666.30;1484.80;;;;;;5072371;28;20041;-72
2021/07/22 11:59:10;;;;;;;19.55;5.53;;;666.30;1484.80;;;;;;5072931;28;20075;-74
2021/07/22 12:02:08;;;;;;;11.27;5.68;;;666.30;1459.20;;;;;;5072991;28;20104;-80
2021/07/22 12:04:35;;;;;;;10.70;5.10;;;666.30;1484.80;;;;;;5060873;28;20369;-74
2021/07/22 12:07:03;;;;;;;10.50;5.40;;;666.40;1484.80;;;;;;5072624;28;20555;-72
2021/07/22 12:09:30;;;;;;;10.85;5.50;;;666.30;1484.80;;;;;;5053746;28;20542;-75
2021/07/22 12:11:58;;;;;;;10.63;5.50;;;666.30;1459.20;;;;;;5071509;28;20392;-75